Hudgins, Virginia
Current Conditions -  °F | °C
As of 11:55 AM on Wednesday 22 Oct 2014 (Local Time) from KW75 Reporting Station
Overcast Overcast  
Wind Chill: 57°   Ceiling: 1700
Heat Index: 57°   Visibility: 10mi
Dew Point: 52°   Wind: 16mph
Humidity: 82%   Direction: 330°NNW
Pressure: 29.84"   Gusts: 26mph
Location:  37.47°N, 76.33°W
Report Text: KW75 221555Z AUTO 33014G23KT 10SM OVC017 14/11 A2984 RMK AO1 T01400110
Loading
Personal Weather Stations






























Interactive Weather Map New forecast layout! Learn more

10-Day Weather Forecast

Advertisements
Track Severe Weather on mobile